Time;durP1;ratioP1;P1;durP2;ratioP2;P2;SDS_P1;SDS_P2;PMS_P1;PMS_P2;Temp;Humidity;BMP_temperature;BMP_pressure;BME280_temperature;BME280_humidity;BME280_pressure;Samples;Min_cycle;Max_cycle;Signal;HPM_P1;HPM_P2
2023/09/03 00:01:11;;;;;;;35.70;31.80;;;22.00;66.90;;;;;;5073213;28;20599;-42
2023/09/03 00:03:39;;;;;;;33.05;29.30;;;22.00;67.00;;;;;;5069527;28;20276;-42
2023/09/03 00:06:08;;;;;;;34.40;30.77;;;21.90;67.10;;;;;;5086612;28;20223;-42
2023/09/03 00:08:38;;;;;;;35.33;29.40;;;21.90;67.30;;;;;;5087698;28;20313;-42
2023/09/03 00:11:10;;;;;;;31.10;27.90;;;21.90;67.40;;;;;;5068987;28;20544;-42
2023/09/03 00:13:41;;;;;;;31.90;28.55;;;21.80;67.20;;;;;;5086018;28;20662;-42
2023/09/03 00:16:09;;;;;;;33.65;30.00;;;21.80;67.20;;;;;;5085109;28;20231;-43
2023/09/03 00:18:40;;;;;;;34.70;30.45;;;21.80;66.90;;;;;;5067514;28;20210;-42
2023/09/03 00:21:11;;;;;;;32.13;28.65;;;21.80;67.10;;;;;;5084837;28;20562;-42
2023/09/03 00:23:38;;;;;;;31.55;28.20;;;21.70;67.10;;;;;;5085996;28;20288;-42
2023/09/03 00:26:05;;;;;;;32.25;28.83;;;21.70;67.20;;;;;;5050854;28;20227;-41
2023/09/03 00:28:32;;;;;;;33.88;29.40;;;21.60;67.40;;;;;;5068063;28;20299;-42
2023/09/03 00:31:04;;;;;;;32.30;28.85;;;21.60;67.30;;;;;;5067502;28;20226;-42
2023/09/03 00:33:32;;;;;;;31.17;27.98;;;21.60;67.30;;;;;;5085367;28;20199;-42
2023/09/03 00:36:02;;;;;;;34.33;29.33;;;21.50;67.40;;;;;;5084738;28;20391;-42
2023/09/03 00:38:32;;;;;;;31.67;28.25;;;21.50;67.40;;;;;;5050829;28;20357;-43
2023/09/03 00:41:00;;;;;;;31.88;28.33;;;21.50;67.50;;;;;;5050703;28;20202;-42
2023/09/03 00:43:27;;;;;;;33.13;29.42;;;21.50;67.40;;;;;;5085728;28;20519;-42
2023/09/03 00:45:54;;;;;;;34.58;30.63;;;21.40;67.50;;;;;;5085386;28;20657;-42
2023/09/03 00:48:28;;;;;;;35.13;30.15;;;21.40;67.60;;;;;;5067171;28;20459;-42
2023/09/03 00:51:01;;;;;;;31.95;28.52;;;21.40;67.80;;;;;;5085658;28;20498;-42
2023/09/03 00:53:31;;;;;;;32.60;29.05;;;21.30;67.90;;;;;;5071074;28;20249;-42
2023/09/03 00:55:58;;;;;;;30.70;25.90;;;21.30;68.00;;;;;;5049938;28;20223;-42
2023/09/03 00:58:26;;;;;;;32.25;28.85;;;21.30;68.00;;;;;;5065384;28;20299;-42
2023/09/03 01:00:56;;;;;;;32.58;27.45;;;21.30;67.90;;;;;;5070218;28;20230;-42
2023/09/03 01:03:26;;;;;;;33.63;30.13;;;21.30;67.80;;;;;;5052926;28;20310;-42
2023/09/03 01:05:56;;;;;;;32.67;29.13;;;21.30;67.80;;;;;;5071498;28;20645;-41
2023/09/03 01:08:24;;;;;;;33.53;29.23;;;21.30;67.70;;;;;;5056451;28;20260;-42
2023/09/03 01:10:54;;;;;;;32.58;28.70;;;21.30;67.30;;;;;;5089936;28;20285;-42
2023/09/03 01:13:32;;;;;;;34.13;30.38;;;21.20;67.50;;;;;;5070501;28;20291;-42
2023/09/03 01:16:06;;;;;;;31.25;27.95;;;21.20;67.60;;;;;;5076835;28;20229;-42
2023/09/03 01:18:39;;;;;;;32.60;29.13;;;21.10;67.70;;;;;;5055922;28;20618;-43
2023/09/03 01:21:06;;;;;;;32.75;29.08;;;21.10;67.60;;;;;;5088395;28;20243;-42
2023/09/03 01:23:44;;;;;;;33.83;29.88;;;21.10;67.60;;;;;;5088879;28;20244;-41
2023/09/03 01:26:34;;;;;;;30.90;26.60;;;21.10;68.30;;;;;;5088478;28;20212;-42
2023/09/03 01:29:05;;;;;;;36.30;30.67;;;21.00;67.80;;;;;;5089014;28;20215;-42
2023/09/03 01:31:35;;;;;;;35.65;30.25;;;21.00;68.00;;;;;;5087309;28;20621;-42
2023/09/03 01:34:05;;;;;;;31.10;27.80;;;21.00;67.90;;;;;;5089516;28;20198;-43
2023/09/03 01:36:34;;;;;;;33.40;29.20;;;21.00;67.90;;;;;;5087699;28;20489;-42
2023/09/03 01:39:03;;;;;;;34.45;29.23;;;20.90;67.80;;;;;;5088649;28;20657;-43
2023/09/03 01:41:38;;;;;;;36.00;29.45;;;20.90;67.90;;;;;;5088944;28;20432;-42
2023/09/03 01:44:05;;;;;;;32.45;28.88;;;20.90;68.20;;;;;;5070555;28;20314;-42
2023/09/03 01:46:43;;;;;;;32.72;28.50;;;20.90;68.10;;;;;;5088399;28;20207;-43
2023/09/03 01:49:25;;;;;;;30.83;27.48;;;20.90;68.30;;;;;;5080117;28;20275;-42
2023/09/03 01:52:05;;;;;;;32.40;28.27;;;20.80;67.80;;;;;;5050977;28;20199;-42
2023/09/03 01:54:40;;;;;;;31.55;26.77;;;20.80;68.10;;;;;;5070193;28;20307;-42
2023/09/03 01:57:14;;;;;;;32.15;28.52;;;20.80;68.00;;;;;;5052119;28;20650;-42
2023/09/03 01:59:47;;;;;;;31.92;28.48;;;20.70;68.10;;;;;;5069388;28;20257;-42
2023/09/03 02:02:20;;;;;;;34.78;30.08;;;20.70;68.10;;;;;;5049069;28;20219;-42
2023/09/03 02:04:51;;;;;;;31.23;27.80;;;20.60;68.00;;;;;;5067086;28;20302;-43
2023/09/03 02:07:18;;;;;;;33.20;29.02;;;20.60;68.10;;;;;;5067987;28;20208;-42
2023/09/03 02:09:45;;;;;;;35.13;28.95;;;20.60;68.20;;;;;;5066024;28;20297;-42
2023/09/03 02:12:12;;;;;;;33.80;29.23;;;20.60;68.40;;;;;;5066637;28;20219;-43
2023/09/03 02:14:42;;;;;;;34.35;29.80;;;20.50;68.50;;;;;;5049671;28;20734;-42
2023/09/03 02:17:19;;;;;;;32.67;28.83;;;20.60;68.70;;;;;;5050638;28;20257;-42
2023/09/03 02:19:51;;;;;;;32.60;29.10;;;20.60;68.70;;;;;;5017897;28;20195;-42
2023/09/03 02:22:18;;;;;;;34.97;29.05;;;20.60;68.70;;;;;;5049915;28;20265;-43
2023/09/03 02:24:46;;;;;;;31.17;27.73;;;20.50;68.70;;;;;;5067709;28;20584;-43
2023/09/03 02:27:16;;;;;;;32.85;28.77;;;20.60;68.70;;;;;;5067754;28;20199;-42
2023/09/03 02:29:43;;;;;;;31.25;27.85;;;20.50;68.70;;;;;;5067467;28;20701;-42
2023/09/03 02:32:10;;;;;;;31.02;27.63;;;20.60;68.80;;;;;;5049513;28;20199;-43
2023/09/03 02:34:40;;;;;;;32.47;28.25;;;20.60;68.70;;;;;;5066073;28;20215;-42
2023/09/03 02:37:09;;;;;;;31.85;28.38;;;20.60;68.70;;;;;;5065642;28;20238;-43
2023/09/03 02:39:36;;;;;;;32.58;28.42;;;20.50;68.70;;;;;;5066943;28;20235;-42
2023/09/03 02:42:06;;;;;;;31.75;28.23;;;20.50;68.70;;;;;;5065812;28;20290;-43
2023/09/03 02:44:33;;;;;;;33.10;29.40;;;20.50;68.80;;;;;;5070659;28;20713;-42
2023/09/03 02:47:05;;;;;;;32.30;28.35;;;20.60;68.80;;;;;;5053490;28;20231;-42
2023/09/03 02:49:34;;;;;;;33.08;28.63;;;20.50;68.70;;;;;;5067200;28;20222;-42
2023/09/03 02:52:02;;;;;;;35.00;29.15;;;20.60;68.60;;;;;;5066765;28;20282;-42
2023/09/03 02:54:32;;;;;;;32.80;29.17;;;20.60;68.50;;;;;;5068867;28;20215;-43
2023/09/03 02:56:59;;;;;;;34.17;29.75;;;20.60;68.50;;;;;;5067942;28;20247;-43
2023/09/03 02:59:26;;;;;;;33.83;28.35;;;20.50;68.40;;;;;;5066880;28;20219;-42
2023/09/03 03:01:53;;;;;;;31.83;28.38;;;20.50;68.60;;;;;;5065260;28;20231;-42
2023/09/03 03:04:23;;;;;;;35.38;29.35;;;20.50;68.60;;;;;;5065485;28;20226;-43
2023/09/03 03:06:50;;;;;;;35.47;29.27;;;20.50;68.80;;;;;;5065927;28;20580;-44
2023/09/03 03:09:17;;;;;;;34.58;29.00;;;20.40;69.00;;;;;;5066833;28;20195;-43
2023/09/03 03:11:46;;;;;;;33.72;28.63;;;20.50;69.00;;;;;;5066435;28;20707;-43
2023/09/03 03:14:16;;;;;;;36.40;29.98;;;20.40;68.90;;;;;;5066666;28;20273;-42
2023/09/03 03:16:43;;;;;;;35.65;29.38;;;20.40;68.60;;;;;;5066290;28;20602;-42
2023/09/03 03:19:10;;;;;;;35.72;29.42;;;20.40;68.60;;;;;;5066407;28;20246;-42
2023/09/03 03:21:40;;;;;;;37.25;30.05;;;20.40;68.60;;;;;;5065614;28;20198;-42
2023/09/03 03:24:08;;;;;;;36.13;28.00;;;20.30;68.80;;;;;;5066334;28;20218;-42
2023/09/03 03:26:40;;;;;;;33.65;28.73;;;20.30;68.80;;;;;;5066246;28;20224;-42
2023/09/03 03:29:09;;;;;;;32.03;27.55;;;20.30;68.70;;;;;;5064738;28;20219;-43
2023/09/03 03:31:39;;;;;;;35.55;29.30;;;20.30;68.50;;;;;;5048603;28;20571;-42
2023/09/03 03:34:08;;;;;;;35.75;28.75;;;20.30;68.40;;;;;;5048718;28;20207;-42
2023/09/03 03:36:37;;;;;;;40.10;30.92;;;20.20;68.30;;;;;;5047242;28;20576;-41
2023/09/03 03:39:04;;;;;;;33.53;28.80;;;20.20;68.30;;;;;;5069777;28;20690;-42
2023/09/03 03:41:32;;;;;;;36.15;29.65;;;20.20;68.30;;;;;;5068254;28;20719;-42
2023/09/03 03:44:01;;;;;;;33.45;28.83;;;20.10;68.40;;;;;;5067848;28;20196;-29
2023/09/03 03:46:28;;;;;;;34.72;29.50;;;20.00;68.30;;;;;;5067951;28;20628;-30
2023/09/03 03:48:56;;;;;;;38.28;31.67;;;20.00;68.50;;;;;;5049594;28;20223;-29
2023/09/03 03:51:25;;;;;;;36.97;30.77;;;20.00;68.50;;;;;;5065707;28;20641;-30
2023/09/03 03:53:55;;;;;;;42.65;31.90;;;19.90;68.70;;;;;;5050799;28;20199;-29
2023/09/03 03:56:24;;;;;;;40.45;32.45;;;19.90;68.90;;;;;;5066065;28;20230;-29
2023/09/03 03:58:51;;;;;;;41.17;31.77;;;19.80;68.80;;;;;;5033487;28;20725;-29
2023/09/03 04:01:23;;;;;;;40.55;33.05;;;19.80;69.10;;;;;;5067417;28;20341;-29
2023/09/03 04:03:59;;;;;;;43.28;33.38;;;19.80;69.00;;;;;;5066915;28;20649;-29
2023/09/03 04:06:27;;;;;;;42.58;31.67;;;19.80;69.10;;;;;;5065169;28;20236;-29
2023/09/03 04:08:59;;;;;;;43.55;33.10;;;19.80;68.90;;;;;;5066016;28;20203;-29
2023/09/03 04:11:31;;;;;;;46.90;34.75;;;19.80;69.20;;;;;;5031754;28;20731;-30
2023/09/03 04:13:58;;;;;;;47.67;33.40;;;19.80;69.20;;;;;;5047956;28;20676;-30
2023/09/03 04:16:30;;;;;;;41.00;31.98;;;19.70;69.30;;;;;;5047830;28;20291;-29
2023/09/03 04:18:57;;;;;;;42.42;32.97;;;19.70;69.40;;;;;;5047495;28;20654;-30
2023/09/03 04:21:24;;;;;;;48.83;33.40;;;19.70;69.50;;;;;;5064903;28;20223;-29
2023/09/03 04:23:54;;;;;;;44.92;33.40;;;19.70;69.60;;;;;;5047326;28;20597;-29
2023/09/03 04:26:23;;;;;;;43.17;32.72;;;19.70;69.70;;;;;;5065007;28;20200;-29
2023/09/03 04:28:55;;;;;;;41.90;32.42;;;19.70;69.70;;;;;;5064142;28;20561;-30
2023/09/03 04:31:24;;;;;;;38.47;30.75;;;19.70;69.70;;;;;;5031528;28;20322;-30
2023/09/03 04:33:52;;;;;;;45.58;34.03;;;19.70;69.70;;;;;;5082881;28;20190;-29
2023/09/03 04:36:25;;;;;;;40.20;32.03;;;19.70;69.70;;;;;;5085659;28;20560;-44
2023/09/03 04:38:53;;;;;;;38.45;31.63;;;19.80;69.70;;;;;;5049753;28;20206;-43
2023/09/03 04:41:22;;;;;;;42.97;32.22;;;19.80;69.80;;;;;;5075247;28;20215;-42
2023/09/03 04:43:51;;;;;;;44.05;32.15;;;19.80;69.60;;;;;;5060577;28;20205;-44
2023/09/03 04:46:23;;;;;;;43.75;32.40;;;19.70;69.60;;;;;;5063018;28;20294;-43
2023/09/03 04:48:50;;;;;;;44.10;32.70;;;19.80;69.60;;;;;;5067101;28;20203;-43
2023/09/03 04:51:17;;;;;;;43.15;33.30;;;19.70;69.50;;;;;;5029858;28;20208;-43
2023/09/03 04:53:45;;;;;;;43.72;32.58;;;19.70;69.60;;;;;;5047543;28;20668;-43
2023/09/03 04:56:15;;;;;;;44.67;33.27;;;19.70;69.60;;;;;;5046746;28;20286;-44
2023/09/03 04:58:44;;;;;;;42.75;32.85;;;19.70;69.70;;;;;;5067185;28;20650;-42
2023/09/03 05:01:15;;;;;;;42.00;31.25;;;19.70;69.60;;;;;;5053714;28;20231;-43
2023/09/03 05:03:43;;;;;;;39.30;31.63;;;19.70;69.70;;;;;;5053049;28;20220;-44
2023/09/03 05:06:17;;;;;;;37.95;29.45;;;19.70;69.70;;;;;;5064546;28;20583;-44
2023/09/03 05:08:48;;;;;;;42.05;30.75;;;19.70;69.50;;;;;;5071243;28;20199;-43
2023/09/03 05:11:16;;;;;;;41.38;30.98;;;19.70;69.40;;;;;;5080437;28;20207;-43
2023/09/03 05:13:43;;;;;;;42.35;31.45;;;19.70;69.30;;;;;;5035294;28;20574;-43
2023/09/03 05:16:13;;;;;;;43.00;31.58;;;19.70;69.20;;;;;;5075602;28;20224;-44
2023/09/03 05:18:40;;;;;;;49.20;32.63;;;19.70;69.20;;;;;;5059872;28;20242;-44
2023/09/03 05:21:08;;;;;;;52.67;30.27;;;19.60;68.80;;;;;;5068289;28;20211;-42
2023/09/03 05:23:36;;;;;;;44.63;31.80;;;19.60;68.60;;;;;;5074747;28;20209;-42
2023/09/03 05:26:03;;;;;;;45.17;31.88;;;19.50;68.90;;;;;;5081386;28;20261;-44
2023/09/03 05:28:33;;;;;;;44.28;31.15;;;19.40;69.20;;;;;;5066728;28;20321;-44
2023/09/03 05:31:02;;;;;;;46.78;31.80;;;19.40;69.50;;;;;;5065983;28;20223;-42
2023/09/03 05:33:36;;;;;;;40.88;30.85;;;19.40;69.90;;;;;;5065611;28;20203;-29
2023/09/03 05:36:06;;;;;;;40.33;28.97;;;19.30;69.80;;;;;;5059552;28;20211;-29
2023/09/03 05:38:33;;;;;;;41.38;26.67;;;19.30;69.60;;;;;;5057982;28;20712;-29
2023/09/03 05:41:03;;;;;;;30.30;24.88;;;19.30;69.40;;;;;;5070870;28;20475;-43
2023/09/03 05:43:32;;;;;;;30.63;25.08;;;19.30;69.30;;;;;;5075143;28;20221;-43
2023/09/03 05:46:00;;;;;;;28.83;23.90;;;19.30;69.80;;;;;;5066082;28;20717;-42
2023/09/03 05:48:30;;;;;;;30.85;25.23;;;19.20;69.10;;;;;;5075900;28;20223;-43
2023/09/03 05:51:03;;;;;;;28.23;24.80;;;19.10;69.20;;;;;;5063874;28;20354;-42
2023/09/03 05:53:38;;;;;;;32.95;26.10;;;19.10;69.40;;;;;;5072886;28;20263;-43
2023/09/03 05:56:07;;;;;;;29.27;25.30;;;19.00;69.90;;;;;;5078107;28;20414;-43
2023/09/03 05:58:34;;;;;;;27.55;24.55;;;19.00;69.90;;;;;;5068971;28;20255;-43
2023/09/03 06:01:11;;;;;;;28.60;25.50;;;19.00;70.10;;;;;;5065247;28;20497;-43
2023/09/03 06:03:39;;;;;;;30.67;25.55;;;19.00;70.50;;;;;;5071151;28;20201;-42
2023/09/03 06:06:09;;;;;;;28.85;25.73;;;19.00;70.40;;;;;;5070242;28;20275;-43
2023/09/03 06:08:37;;;;;;;25.48;22.75;;;19.00;70.60;;;;;;5067074;28;20676;-42
2023/09/03 06:11:05;;;;;;;29.02;25.85;;;19.00;70.70;;;;;;5087717;28;20823;-43
2023/09/03 06:13:33;;;;;;;27.55;24.73;;;19.10;70.80;;;;;;5050097;28;20681;-43
2023/09/03 06:16:03;;;;;;;25.92;23.13;;;19.10;70.80;;;;;;5068605;28;20231;-29
2023/09/03 06:18:33;;;;;;;26.67;23.77;;;19.10;70.80;;;;;;5051150;28;20227;-30
2023/09/03 06:21:03;;;;;;;26.77;23.92;;;19.10;70.70;;;;;;5067606;28;20231;-30
2023/09/03 06:23:30;;;;;;;26.00;23.27;;;19.20;70.70;;;;;;5063760;28;20661;-29
2023/09/03 06:25:57;;;;;;;25.38;22.75;;;19.20;70.80;;;;;;5086601;28;20763;-29
2023/09/03 06:28:26;;;;;;;26.45;23.70;;;19.30;70.80;;;;;;5072093;28;20276;-30
2023/09/03 06:31:00;;;;;;;26.50;23.45;;;19.30;70.90;;;;;;5083257;28;20207;-29
2023/09/03 06:33:32;;;;;;;27.75;23.73;;;19.30;71.00;;;;;;5089425;28;20226;-30
2023/09/03 06:36:01;;;;;;;27.15;23.88;;;19.30;71.00;;;;;;5070279;28;20628;-29
2023/09/03 06:38:35;;;;;;;28.38;24.90;;;19.40;71.00;;;;;;5069043;28;20221;-43
2023/09/03 06:41:02;;;;;;;30.67;27.35;;;19.40;71.00;;;;;;5076336;28;20512;-43
2023/09/03 06:43:32;;;;;;;31.08;27.58;;;19.40;71.00;;;;;;5057084;28;20299;-44
2023/09/03 06:45:59;;;;;;;32.17;27.50;;;19.50;71.20;;;;;;5050247;28;20207;-43
2023/09/03 06:48:26;;;;;;;30.00;25.95;;;19.50;71.20;;;;;;5056487;28;20290;-45
2023/09/03 06:50:57;;;;;;;30.33;27.02;;;19.50;71.00;;;;;;5063093;28;20211;-45
2023/09/03 06:53:24;;;;;;;28.40;25.25;;;19.60;71.00;;;;;;5050804;28;20219;-43
2023/09/03 06:55:58;;;;;;;30.25;26.30;;;19.60;71.00;;;;;;5069871;28;20293;-43
2023/09/03 06:58:28;;;;;;;28.33;25.05;;;19.60;70.90;;;;;;5087428;28;20232;-42
2023/09/03 07:00:57;;;;;;;30.20;25.20;;;19.60;70.90;;;;;;5057336;28;20318;-43
2023/09/03 07:03:29;;;;;;;30.77;26.80;;;19.60;71.00;;;;;;5077569;28;20203;-41
2023/09/03 07:05:59;;;;;;;32.83;27.45;;;19.60;71.00;;;;;;5066810;28;20861;-28
2023/09/03 07:08:26;;;;;;;31.13;26.05;;;19.70;71.00;;;;;;5053281;28;20219;-28
2023/09/03 07:10:59;;;;;;;31.05;27.63;;;19.70;71.00;;;;;;5068790;28;20206;-29
2023/09/03 07:13:27;;;;;;;34.45;28.23;;;19.70;71.10;;;;;;5078349;28;20226;-28
2023/09/03 07:15:54;;;;;;;33.45;28.52;;;19.80;71.00;;;;;;5074856;28;20272;-28
2023/09/03 07:18:21;;;;;;;28.88;25.20;;;19.80;70.90;;;;;;5087154;28;20272;-28
2023/09/03 07:21:04;;;;;;;31.98;26.75;;;19.80;70.90;;;;;;5070460;28;20206;-28
2023/09/03 07:23:38;;;;;;;34.00;28.58;;;19.80;70.90;;;;;;5070002;28;20190;-29
2023/09/03 07:26:07;;;;;;;37.42;30.02;;;19.80;70.90;;;;;;5087676;28;20293;-29
2023/09/03 07:28:38;;;;;;;29.95;26.63;;;19.90;71.00;;;;;;5071054;28;20658;-42
2023/09/03 07:31:05;;;;;;;36.20;29.67;;;19.90;70.90;;;;;;5089149;28;20195;-42
2023/09/03 07:33:35;;;;;;;33.47;29.58;;;19.90;71.00;;;;;;5069306;28;20318;-42
2023/09/03 07:36:09;;;;;;;31.48;28.08;;;19.90;71.00;;;;;;5071775;28;20203;-28
2023/09/03 07:38:38;;;;;;;34.85;28.08;;;19.90;71.10;;;;;;5086742;28;20306;-28
2023/09/03 07:41:07;;;;;;;34.13;28.92;;;19.90;71.00;;;;;;5068781;28;20212;-28
2023/09/03 07:43:39;;;;;;;36.38;29.67;;;19.90;70.80;;;;;;5085108;28;20294;-31
2023/09/03 07:46:06;;;;;;;32.83;29.02;;;20.00;71.00;;;;;;5067972;28;20207;-31
2023/09/03 07:48:36;;;;;;;33.85;28.08;;;20.00;70.90;;;;;;5067684;28;20207;-28
2023/09/03 07:51:04;;;;;;;34.70;29.00;;;20.00;71.00;;;;;;5066788;28;20326;-28
2023/09/03 07:53:33;;;;;;;30.40;26.42;;;20.00;71.20;;;;;;5074594;28;20257;-28
2023/09/03 07:56:00;;;;;;;32.72;27.63;;;20.00;71.40;;;;;;5064010;28;20203;-31
2023/09/03 07:58:28;;;;;;;33.25;28.58;;;20.00;71.20;;;;;;5067330;28;20410;-31
2023/09/03 08:00:55;;;;;;;34.20;28.90;;;20.10;71.20;;;;;;5032383;28;20310;-31
2023/09/03 08:03:31;;;;;;;36.28;28.48;;;20.10;71.20;;;;;;5064475;28;20202;-29
2023/09/03 08:06:02;;;;;;;36.80;30.08;;;20.10;71.30;;;;;;5082602;28;20209;-31
2023/09/03 08:08:29;;;;;;;36.08;29.58;;;20.10;72.10;;;;;;5082026;28;20222;-29
2023/09/03 08:10:56;;;;;;;35.45;29.90;;;20.20;71.40;;;;;;5073309;28;20242;-29
2023/09/03 08:13:24;;;;;;;34.97;29.48;;;20.20;71.40;;;;;;5064749;28;20539;-30
2023/09/03 08:15:55;;;;;;;37.95;31.40;;;20.20;71.50;;;;;;5061693;28;20625;-29
2023/09/03 08:18:23;;;;;;;39.53;30.25;;;20.30;71.70;;;;;;5078584;28;20279;-29
2023/09/03 08:20:51;;;;;;;45.35;33.45;;;20.30;71.60;;;;;;5076028;28;20277;-29
2023/09/03 08:23:18;;;;;;;44.80;35.72;;;20.40;71.70;;;;;;5067903;28;20285;-29
2023/09/03 08:25:51;;;;;;;38.30;32.50;;;20.40;71.70;;;;;;5054227;28;20207;-29
2023/09/03 08:28:19;;;;;;;40.70;32.05;;;20.50;71.60;;;;;;5066110;28;20227;-29
2023/09/03 08:30:48;;;;;;;40.88;32.92;;;20.50;72.00;;;;;;5065058;28;20923;-29
2023/09/03 08:33:17;;;;;;;34.45;28.33;;;20.60;72.00;;;;;;5072310;28;20657;-29
2023/09/03 08:35:47;;;;;;;39.72;29.45;;;20.60;71.80;;;;;;5073039;28;20217;-29
2023/09/03 08:38:14;;;;;;;38.95;30.23;;;20.60;72.60;;;;;;5085813;28;20231;-29
2023/09/03 08:40:43;;;;;;;39.40;30.80;;;20.70;71.80;;;;;;5083326;28;20520;-29
2023/09/03 08:43:14;;;;;;;39.15;31.42;;;20.80;71.80;;;;;;5085766;28;20870;-29
2023/09/03 08:45:49;;;;;;;41.28;33.58;;;20.80;71.90;;;;;;5062606;28;20241;-29
2023/09/03 08:48:21;;;;;;;41.22;32.10;;;20.80;71.90;;;;;;5074141;28;20653;-29
2023/09/03 08:50:52;;;;;;;41.92;32.13;;;20.90;71.80;;;;;;5086280;28;20715;-29
2023/09/03 08:53:22;;;;;;;40.25;31.58;;;20.90;71.80;;;;;;5048689;28;20600;-28
2023/09/03 08:55:53;;;;;;;37.22;30.55;;;21.00;71.80;;;;;;5075976;28;20243;-29
2023/09/03 08:58:23;;;;;;;39.17;31.70;;;21.10;71.80;;;;;;5032679;28;20595;-29
2023/09/03 09:00:54;;;;;;;40.03;30.52;;;21.10;71.80;;;;;;5066471;28;20326;-29
2023/09/03 09:03:27;;;;;;;42.30;34.58;;;21.10;71.80;;;;;;5072648;28;20263;-29
2023/09/03 09:05:56;;;;;;;35.97;28.40;;;21.20;71.70;;;;;;5064853;28;20226;-29
2023/09/03 09:08:27;;;;;;;42.55;32.38;;;21.20;71.70;;;;;;5068857;28;20244;-29
2023/09/03 09:10:58;;;;;;;37.30;30.05;;;21.30;71.80;;;;;;5067392;28;20203;-29
2023/09/03 09:13:27;;;;;;;39.05;29.25;;;21.30;71.80;;;;;;5084909;28;20218;-29
2023/09/03 09:15:57;;;;;;;40.67;30.65;;;21.40;71.80;;;;;;5075621;28;20199;-29
2023/09/03 09:18:24;;;;;;;39.35;29.85;;;21.40;71.50;;;;;;5085014;28;20219;-29
2023/09/03 09:20:56;;;;;;;37.47;29.20;;;21.50;71.60;;;;;;5088153;28;20290;-29
2023/09/03 09:23:26;;;;;;;36.75;29.63;;;21.50;71.50;;;;;;5090445;28;20218;-29
2023/09/03 09:25:55;;;;;;;36.90;29.83;;;21.60;71.50;;;;;;5074142;28;20322;-29
2023/09/03 09:28:26;;;;;;;39.60;30.20;;;21.60;71.50;;;;;;5063033;28;20552;-29
2023/09/03 09:30:57;;;;;;;33.25;25.58;;;21.60;71.00;;;;;;5083677;28;20653;-29
2023/09/03 09:33:27;;;;;;;27.85;23.92;;;21.70;71.00;;;;;;5072864;28;20191;-29
2023/09/03 09:36:09;;;;;;;30.05;24.08;;;21.70;70.80;;;;;;5084461;28;20618;-29
2023/09/03 09:38:39;;;;;;;27.23;22.45;;;21.70;70.70;;;;;;5088628;28;20230;-29
2023/09/03 09:41:26;;;;;;;27.90;23.45;;;21.70;70.60;;;;;;5085997;28;20194;-29
2023/09/03 09:43:58;;;;;;;26.85;21.95;;;21.70;70.40;;;;;;5070161;28;20666;-29
2023/09/03 09:46:33;;;;;;;28.17;22.35;;;21.80;70.70;;;;;;5088500;28;20734;-29
2023/09/03 09:49:02;;;;;;;25.15;22.40;;;21.80;70.50;;;;;;5038981;28;20722;-29
2023/09/03 09:51:31;;;;;;;22.50;17.58;;;21.80;70.60;;;;;;5085721;28;20644;-29
2023/09/03 09:54:03;;;;;;;24.33;18.90;;;21.80;70.60;;;;;;5088419;28;20276;-29
2023/09/03 09:56:34;;;;;;;19.58;16.98;;;21.90;70.70;;;;;;5065105;28;20208;-29
2023/09/03 09:59:09;;;;;;;23.13;19.17;;;21.90;70.70;;;;;;5090025;28;20250;-28
2023/09/03 10:01:46;;;;;;;21.75;19.20;;;22.00;70.70;;;;;;5049282;28;20679;-29
2023/09/03 10:04:25;;;;;;;21.70;16.85;;;22.00;70.60;;;;;;5074503;28;20218;-29
2023/09/03 10:06:53;;;;;;;18.77;16.08;;;22.00;70.60;;;;;;5059811;28;20685;-29
2023/09/03 10:09:20;;;;;;;16.17;14.02;;;22.10;70.50;;;;;;5035199;28;20212;-29
2023/09/03 10:11:50;;;;;;;19.95;16.27;;;22.10;70.60;;;;;;5050948;28;20557;-28
2023/09/03 10:14:17;;;;;;;18.48;15.70;;;22.20;70.50;;;;;;5053971;28;20214;-29
2023/09/03 10:16:46;;;;;;;19.77;17.38;;;22.20;70.50;;;;;;5067646;28;20203;-29
2023/09/03 10:19:17;;;;;;;19.58;17.10;;;22.20;70.20;;;;;;5073578;28;20242;-28
2023/09/03 10:21:47;;;;;;;19.45;15.88;;;22.30;70.20;;;;;;5088712;28;20619;-30
2023/09/03 10:24:23;;;;;;;20.42;18.08;;;22.30;70.20;;;;;;5057302;28;20203;-30
2023/09/03 10:27:01;;;;;;;21.35;17.67;;;22.40;70.20;;;;;;5085613;28;20195;-27
2023/09/03 10:29:32;;;;;;;23.65;19.77;;;22.40;70.20;;;;;;5088860;28;20283;-29
2023/09/03 10:32:02;;;;;;;21.42;17.85;;;22.40;70.20;;;;;;5069162;28;20207;-29
2023/09/03 10:34:35;;;;;;;20.67;16.35;;;22.50;70.20;;;;;;5066903;28;20219;-29
2023/09/03 10:37:09;;;;;;;17.52;13.85;;;22.50;70.00;;;;;;5071480;28;20209;-29
2023/09/03 10:39:38;;;;;;;15.70;14.02;;;22.60;69.80;;;;;;5053030;28;20227;-29
2023/09/03 10:42:14;;;;;;;12.82;11.43;;;22.60;69.70;;;;;;5084230;28;20700;-29
2023/09/03 10:44:49;;;;;;;13.15;10.90;;;22.60;69.60;;;;;;5054021;28;20338;-30
2023/09/03 10:47:22;;;;;;;13.73;12.20;;;22.60;69.50;;;;;;5069918;28;20660;-30
2023/09/03 10:49:51;;;;;;;12.40;11.05;;;22.70;69.10;;;;;;5070823;28;20227;-30
2023/09/03 10:52:37;;;;;;;13.80;11.38;;;22.70;69.50;;;;;;5057949;28;20617;-29
2023/09/03 10:55:12;;;;;;;14.77;12.40;;;22.70;69.10;;;;;;5077131;28;20208;-29
2023/09/03 10:57:49;;;;;;;13.02;11.38;;;22.70;69.10;;;;;;5092513;28;20214;-29
2023/09/03 11:00:23;;;;;;;13.63;11.45;;;22.70;68.90;;;;;;5036822;28;20231;-29
2023/09/03 11:03:18;;;;;;;11.25;10.00;;;22.80;69.00;;;;;;5048127;28;20693;-29
2023/09/03 11:06:16;;;;;;;9.88;8.90;;;22.80;68.70;;;;;;5047495;28;20305;-29
2023/09/03 11:08:48;;;;;;;10.63;9.52;;;22.80;68.90;;;;;;5062654;28;20581;-42
2023/09/03 11:11:20;;;;;;;11.98;10.77;;;22.90;69.10;;;;;;5058389;28;20208;-42
2023/09/03 11:13:52;;;;;;;11.10;9.90;;;22.90;69.10;;;;;;5062565;28;20377;-41
2023/09/03 11:16:29;;;;;;;12.60;10.25;;;22.90;69.00;;;;;;5064425;28;20268;-41
2023/09/03 11:18:58;;;;;;;11.27;10.00;;;22.90;69.00;;;;;;5078912;28;20227;-43
2023/09/03 11:21:30;;;;;;;13.82;12.30;;;23.00;68.20;;;;;;5066912;28;20265;-42
2023/09/03 11:24:13;;;;;;;12.13;10.90;;;23.00;68.80;;;;;;5068096;28;20199;-41
2023/09/03 11:26:40;;;;;;;12.80;9.98;;;23.10;68.90;;;;;;5051494;28;20216;-42
2023/09/03 11:29:26;;;;;;;12.95;11.23;;;23.10;68.90;;;;;;5074694;28;20309;-42
2023/09/03 11:31:55;;;;;;;14.32;12.82;;;23.10;68.40;;;;;;5067765;28;20212;-43
2023/09/03 11:34:28;;;;;;;16.35;12.52;;;23.20;68.60;;;;;;5067443;28;20615;-43
2023/09/03 11:36:57;;;;;;;14.30;12.85;;;23.20;68.60;;;;;;5061696;28;20294;-42
2023/09/03 11:39:29;;;;;;;11.50;10.30;;;23.30;68.10;;;;;;5056976;28;20611;-42
2023/09/03 11:41:57;;;;;;;10.10;8.85;;;23.30;68.30;;;;;;5064356;28;20211;-42
2023/09/03 11:44:27;;;;;;;10.80;9.70;;;23.30;68.40;;;;;;5046111;28;20283;-42
2023/09/03 11:47:01;;;;;;;12.35;10.85;;;23.30;68.40;;;;;;5046988;28;20204;-41
2023/09/03 11:49:31;;;;;;;11.43;10.18;;;23.40;68.60;;;;;;5064783;28;20955;-42
2023/09/03 11:52:11;;;;;;;11.85;10.65;;;23.40;68.60;;;;;;5081650;28;20269;-41
2023/09/03 11:54:44;;;;;;;13.10;10.27;;;23.50;68.70;;;;;;5082336;28;20227;-42
2023/09/03 11:57:14;;;;;;;10.68;9.57;;;23.50;68.40;;;;;;5047306;28;20286;-42
2023/09/03 11:59:42;;;;;;;13.77;10.68;;;23.50;68.50;;;;;;5049482;28;20226;-43
2023/09/03 12:02:10;;;;;;;11.30;10.10;;;23.60;68.50;;;;;;5068830;28;20210;-42
2023/09/03 12:04:38;;;;;;;11.68;10.40;;;23.60;68.30;;;;;;5068912;28;20361;-42
2023/09/03 12:07:21;;;;;;;9.68;8.75;;;23.70;67.60;;;;;;5066046;28;20211;-42
2023/09/03 12:09:53;;;;;;;10.90;9.27;;;23.70;68.00;;;;;;5086727;28;20210;-41
2023/09/03 12:12:20;;;;;;;12.05;10.68;;;23.70;68.00;;;;;;5070954;28;20568;-40
2023/09/03 12:14:47;;;;;;;11.52;9.52;;;23.70;68.00;;;;;;5066351;28;20219;-42
2023/09/03 12:17:28;;;;;;;10.07;8.70;;;23.80;67.90;;;;;;5051080;28;20211;-40
2023/09/03 12:19:55;;;;;;;11.48;8.60;;;23.80;68.00;;;;;;5085789;28;20717;-41
2023/09/03 12:22:22;;;;;;;10.52;8.48;;;23.90;67.90;;;;;;5087054;28;20314;-42
2023/09/03 12:24:52;;;;;;;9.60;8.70;;;23.90;67.70;;;;;;5085605;28;20334;-42
2023/09/03 12:27:19;;;;;;;13.25;9.70;;;23.90;67.50;;;;;;5071486;28;20195;-42
2023/09/03 12:29:55;;;;;;;11.07;9.10;;;23.90;67.20;;;;;;5076828;28;20370;-42
2023/09/03 12:32:35;;;;;;;9.30;7.95;;;24.00;67.30;;;;;;5074498;28;20293;-43
2023/09/03 12:35:18;;;;;;;9.55;8.05;;;24.00;67.10;;;;;;5070474;28;20211;-42
2023/09/03 12:37:48;;;;;;;8.95;8.05;;;24.00;67.10;;;;;;5049208;28;20617;-41
2023/09/03 12:40:18;;;;;;;10.43;8.32;;;24.00;67.10;;;;;;5082289;28;20247;-41
2023/09/03 12:42:45;;;;;;;9.32;7.47;;;24.00;66.80;;;;;;5084537;28;20306;-41
2023/09/03 12:45:14;;;;;;;8.10;7.30;;;24.10;66.30;;;;;;5085157;28;20213;-40